sensor_id;sensor_type;location;lat;lon;timestamp;temperature;humidity
64654;DHT22;51065;48.884;12.598;2023-08-31T00:02:14;12.60;99.90
64654;DHT22;51065;48.884;12.598;2023-08-31T00:04:39;12.50;99.90
64654;DHT22;51065;48.884;12.598;2023-08-31T00:07:05;12.50;99.90
64654;DHT22;51065;48.884;12.598;2023-08-31T00:09:32;12.40;99.90
64654;DHT22;51065;48.884;12.598;2023-08-31T00:11:58;12.50;99.90
64654;DHT22;51065;48.884;12.598;2023-08-31T00:14:24;12.50;99.90
64654;DHT22;51065;48.884;12.598;2023-08-31T00:16:50;12.60;99.90
64654;DHT22;51065;48.884;12.598;2023-08-31T00:19:16;12.60;99.90
64654;DHT22;51065;48.884;12.598;2023-08-31T00:21:42;12.60;99.90
64654;DHT22;51065;48.884;12.598;2023-08-31T00:24:07;12.50;99.90
64654;DHT22;51065;48.884;12.598;2023-08-31T00:26:33;12.50;99.90
64654;DHT22;51065;48.884;12.598;2023-08-31T00:29:00;12.50;99.90
64654;DHT22;51065;48.884;12.598;2023-08-31T00:31:25;12.40;99.90
64654;DHT22;51065;48.884;12.598;2023-08-31T00:33:53;12.40;99.90
64654;DHT22;51065;48.884;12.598;2023-08-31T00:36:18;12.50;99.90
64654;DHT22;51065;48.884;12.598;2023-08-31T00:38:44;12.40;99.90
64654;DHT22;51065;48.884;12.598;2023-08-31T00:41:10;12.40;99.90
64654;DHT22;51065;48.884;12.598;2023-08-31T00:43:36;12.40;99.90
64654;DHT22;51065;48.884;12.598;2023-08-31T00:46:02;12.30;99.90
64654;DHT22;51065;48.884;12.598;2023-08-31T00:48:28;12.40;99.90
64654;DHT22;51065;48.884;12.598;2023-08-31T00:50:53;12.40;99.90
64654;DHT22;51065;48.884;12.598;2023-08-31T00:53:19;12.30;99.90
64654;DHT22;51065;48.884;12.598;2023-08-31T00:55:45;12.20;99.90
64654;DHT22;51065;48.884;12.598;2023-08-31T00:58:11;12.10;99.90
64654;DHT22;51065;48.884;12.598;2023-08-31T01:00:50;12.00;99.90
64654;DHT22;51065;48.884;12.598;2023-08-31T01:03:33;11.90;99.90
64654;DHT22;51065;48.884;12.598;2023-08-31T01:06:12;12.10;99.90
64654;DHT22;51065;48.884;12.598;2023-08-31T01:08:49;12.10;99.90
64654;DHT22;51065;48.884;12.598;2023-08-31T01:11:34;11.90;99.90
64654;DHT22;51065;48.884;12.598;2023-08-31T01:14:12;11.80;99.90
64654;DHT22;51065;48.884;12.598;2023-08-31T01:16:42;11.60;99.90
64654;DHT22;51065;48.884;12.598;2023-08-31T01:19:41;11.70;99.90
64654;DHT22;51065;48.884;12.598;2023-08-31T01:22:16;11.80;99.90
64654;DHT22;51065;48.884;12.598;2023-08-31T01:24:43;11.90;99.90
64654;DHT22;51065;48.884;12.598;2023-08-31T01:27:10;11.90;99.90
64654;DHT22;51065;48.884;12.598;2023-08-31T01:29:35;11.90;99.90
64654;DHT22;51065;48.884;12.598;2023-08-31T01:32:05;11.90;99.90
64654;DHT22;51065;48.884;12.598;2023-08-31T01:34:31;12.00;99.90
64654;DHT22;51065;48.884;12.598;2023-08-31T01:36:59;12.00;99.90
64654;DHT22;51065;48.884;12.598;2023-08-31T01:39:41;12.10;99.90
64654;DHT22;51065;48.884;12.598;2023-08-31T01:42:13;12.00;99.90
64654;DHT22;51065;48.884;12.598;2023-08-31T01:44:39;12.10;99.90
64654;DHT22;51065;48.884;12.598;2023-08-31T01:47:06;12.10;99.90
64654;DHT22;51065;48.884;12.598;2023-08-31T01:49:41;12.20;99.90
64654;DHT22;51065;48.884;12.598;2023-08-31T01:52:08;12.30;99.90
64654;DHT22;51065;48.884;12.598;2023-08-31T01:54:34;12.40;99.90
64654;DHT22;51065;48.884;12.598;2023-08-31T01:57:03;12.50;99.90
64654;DHT22;51065;48.884;12.598;2023-08-31T01:59:28;12.50;99.90
64654;DHT22;51065;48.884;12.598;2023-08-31T02:01:54;12.50;99.90
64654;DHT22;51065;48.884;12.598;2023-08-31T02:04:19;12.60;99.90
64654;DHT22;51065;48.884;12.598;2023-08-31T02:06:45;12.60;99.90
64654;DHT22;51065;48.884;12.598;2023-08-31T02:09:13;12.60;99.90
64654;DHT22;51065;48.884;12.598;2023-08-31T02:11:39;12.70;99.90
64654;DHT22;51065;48.884;12.598;2023-08-31T02:14:05;12.70;99.90
64654;DHT22;51065;48.884;12.598;2023-08-31T02:16:31;12.70;99.90
64654;DHT22;51065;48.884;12.598;2023-08-31T02:19:00;12.70;99.90
64654;DHT22;51065;48.884;12.598;2023-08-31T02:21:25;12.70;99.90
64654;DHT22;51065;48.884;12.598;2023-08-31T02:23:51;12.70;99.90
64654;DHT22;51065;48.884;12.598;2023-08-31T02:26:16;12.70;99.90
64654;DHT22;51065;48.884;12.598;2023-08-31T02:28:42;12.80;99.90
64654;DHT22;51065;48.884;12.598;2023-08-31T02:31:09;12.80;99.90
64654;DHT22;51065;48.884;12.598;2023-08-31T02:33:35;12.80;99.90
64654;DHT22;51065;48.884;12.598;2023-08-31T02:36:00;12.80;99.90
64654;DHT22;51065;48.884;12.598;2023-08-31T02:38:26;12.80;99.90
64654;DHT22;51065;48.884;12.598;2023-08-31T02:40:52;12.80;99.90
64654;DHT22;51065;48.884;12.598;2023-08-31T02:43:17;12.80;99.90
64654;DHT22;51065;48.884;12.598;2023-08-31T02:45:43;12.80;99.90
64654;DHT22;51065;48.884;12.598;2023-08-31T02:48:09;12.80;99.90
64654;DHT22;51065;48.884;12.598;2023-08-31T02:50:35;12.80;99.90
64654;DHT22;51065;48.884;12.598;2023-08-31T02:53:01;12.80;99.90
64654;DHT22;51065;48.884;12.598;2023-08-31T02:55:27;12.70;99.90
64654;DHT22;51065;48.884;12.598;2023-08-31T02:57:53;12.70;99.90
64654;DHT22;51065;48.884;12.598;2023-08-31T03:00:22;12.80;99.90
64654;DHT22;51065;48.884;12.598;2023-08-31T03:02:48;12.70;99.90
64654;DHT22;51065;48.884;12.598;2023-08-31T03:05:14;12.80;99.90
64654;DHT22;51065;48.884;12.598;2023-08-31T03:07:40;12.70;99.90
64654;DHT22;51065;48.884;12.598;2023-08-31T03:10:06;12.70;99.90
64654;DHT22;51065;48.884;12.598;2023-08-31T03:12:32;12.70;99.90
64654;DHT22;51065;48.884;12.598;2023-08-31T03:14:57;12.70;99.90
64654;DHT22;51065;48.884;12.598;2023-08-31T03:17:23;12.70;99.90
64654;DHT22;51065;48.884;12.598;2023-08-31T03:19:49;12.70;99.90
64654;DHT22;51065;48.884;12.598;2023-08-31T03:22:15;12.70;99.90
64654;DHT22;51065;48.884;12.598;2023-08-31T03:24:41;12.70;99.90
64654;DHT22;51065;48.884;12.598;2023-08-31T03:27:07;12.70;99.90
64654;DHT22;51065;48.884;12.598;2023-08-31T03:29:32;12.70;99.90
64654;DHT22;51065;48.884;12.598;2023-08-31T03:32:00;12.70;99.90
64654;DHT22;51065;48.884;12.598;2023-08-31T03:34:31;12.70;99.90
64654;DHT22;51065;48.884;12.598;2023-08-31T03:36:58;12.70;99.90
64654;DHT22;51065;48.884;12.598;2023-08-31T03:39:25;12.80;99.90
64654;DHT22;51065;48.884;12.598;2023-08-31T03:41:50;12.80;99.90
64654;DHT22;51065;48.884;12.598;2023-08-31T03:44:16;12.70;99.90
64654;DHT22;51065;48.884;12.598;2023-08-31T03:46:43;12.70;99.90
64654;DHT22;51065;48.884;12.598;2023-08-31T03:49:09;12.70;99.90
64654;DHT22;51065;48.884;12.598;2023-08-31T03:51:34;12.70;99.90
64654;DHT22;51065;48.884;12.598;2023-08-31T03:54:00;12.70;99.90
64654;DHT22;51065;48.884;12.598;2023-08-31T03:56:26;12.60;99.90
64654;DHT22;51065;48.884;12.598;2023-08-31T03:58:52;12.60;99.90
64654;DHT22;51065;48.884;12.598;2023-08-31T04:01:18;12.60;99.90
64654;DHT22;51065;48.884;12.598;2023-08-31T04:03:43;12.50;99.90
64654;DHT22;51065;48.884;12.598;2023-08-31T04:06:09;12.50;99.90
64654;DHT22;51065;48.884;12.598;2023-08-31T04:08:34;12.50;99.90
64654;DHT22;51065;48.884;12.598;2023-08-31T04:11:00;12.50;99.90
64654;DHT22;51065;48.884;12.598;2023-08-31T04:13:26;12.50;99.90
64654;DHT22;51065;48.884;12.598;2023-08-31T04:15:55;12.50;99.90
64654;DHT22;51065;48.884;12.598;2023-08-31T04:18:21;12.50;99.90
64654;DHT22;51065;48.884;12.598;2023-08-31T04:20:50;12.50;99.90
64654;DHT22;51065;48.884;12.598;2023-08-31T04:23:17;12.40;99.90
64654;DHT22;51065;48.884;12.598;2023-08-31T04:25:43;12.40;99.90
64654;DHT22;51065;48.884;12.598;2023-08-31T04:28:09;12.40;99.90
64654;DHT22;51065;48.884;12.598;2023-08-31T04:30:34;12.40;99.90
64654;DHT22;51065;48.884;12.598;2023-08-31T04:33:00;12.40;99.90
64654;DHT22;51065;48.884;12.598;2023-08-31T04:35:26;12.50;99.90
64654;DHT22;51065;48.884;12.598;2023-08-31T04:37:52;12.60;99.90
64654;DHT22;51065;48.884;12.598;2023-08-31T04:40:17;12.60;99.90
64654;DHT22;51065;48.884;12.598;2023-08-31T04:42:43;12.60;99.90
64654;DHT22;51065;48.884;12.598;2023-08-31T04:45:09;12.60;99.90
64654;DHT22;51065;48.884;12.598;2023-08-31T04:47:36;12.60;99.90
64654;DHT22;51065;48.884;12.598;2023-08-31T04:50:02;12.60;99.90
64654;DHT22;51065;48.884;12.598;2023-08-31T04:52:28;12.60;99.90
64654;DHT22;51065;48.884;12.598;2023-08-31T04:54:54;12.70;99.90
64654;DHT22;51065;48.884;12.598;2023-08-31T04:57:19;12.70;99.90
64654;DHT22;51065;48.884;12.598;2023-08-31T04:59:46;12.70;99.90
64654;DHT22;51065;48.884;12.598;2023-08-31T05:02:14;12.70;99.90
64654;DHT22;51065;48.884;12.598;2023-08-31T05:04:40;12.70;99.90
64654;DHT22;51065;48.884;12.598;2023-08-31T05:07:05;12.70;99.90
64654;DHT22;51065;48.884;12.598;2023-08-31T05:09:31;12.70;99.90
64654;DHT22;51065;48.884;12.598;2023-08-31T05:12:03;12.60;99.90
64654;DHT22;51065;48.884;12.598;2023-08-31T05:14:29;12.60;99.90
64654;DHT22;51065;48.884;12.598;2023-08-31T05:16:55;12.70;99.90
64654;DHT22;51065;48.884;12.598;2023-08-31T05:19:20;12.70;99.90
64654;DHT22;51065;48.884;12.598;2023-08-31T05:21:49;12.70;99.90
64654;DHT22;51065;48.884;12.598;2023-08-31T05:24:14;12.80;99.90
64654;DHT22;51065;48.884;12.598;2023-08-31T05:26:40;12.90;99.90
64654;DHT22;51065;48.884;12.598;2023-08-31T05:29:05;12.90;99.90
64654;DHT22;51065;48.884;12.598;2023-08-31T05:31:31;12.90;99.90
64654;DHT22;51065;48.884;12.598;2023-08-31T05:33:57;13.00;99.90
64654;DHT22;51065;48.884;12.598;2023-08-31T05:36:23;13.00;99.90
64654;DHT22;51065;48.884;12.598;2023-08-31T05:38:50;13.10;99.90
64654;DHT22;51065;48.884;12.598;2023-08-31T05:41:15;13.10;99.90
64654;DHT22;51065;48.884;12.598;2023-08-31T05:43:41;13.10;99.90
64654;DHT22;51065;48.884;12.598;2023-08-31T05:46:08;13.10;99.90
64654;DHT22;51065;48.884;12.598;2023-08-31T05:48:34;13.20;99.90
64654;DHT22;51065;48.884;12.598;2023-08-31T05:51:00;13.40;99.90
64654;DHT22;51065;48.884;12.598;2023-08-31T05:53:26;13.70;99.90
64654;DHT22;51065;48.884;12.598;2023-08-31T05:55:51;14.10;99.90
64654;DHT22;51065;48.884;12.598;2023-08-31T05:58:17;14.50;99.90
64654;DHT22;51065;48.884;12.598;2023-08-31T06:00:42;14.30;99.90
64654;DHT22;51065;48.884;12.598;2023-08-31T06:03:08;14.40;99.90
64654;DHT22;51065;48.884;12.598;2023-08-31T06:05:35;14.70;99.90
64654;DHT22;51065;48.884;12.598;2023-08-31T06:08:01;15.00;99.90
64654;DHT22;51065;48.884;12.598;2023-08-31T06:10:26;15.40;99.90
64654;DHT22;51065;48.884;12.598;2023-08-31T06:12:52;15.80;99.90
64654;DHT22;51065;48.884;12.598;2023-08-31T06:15:17;15.90;99.90
64654;DHT22;51065;48.884;12.598;2023-08-31T06:17:43;16.10;99.90
64654;DHT22;51065;48.884;12.598;2023-08-31T06:20:09;16.00;99.90
64654;DHT22;51065;48.884;12.598;2023-08-31T06:22:35;16.30;99.90
64654;DHT22;51065;48.884;12.598;2023-08-31T06:25:01;16.20;99.90
64654;DHT22;51065;48.884;12.598;2023-08-31T06:27:28;16.00;99.90
64654;DHT22;51065;48.884;12.598;2023-08-31T06:29:54;16.20;99.90
64654;DHT22;51065;48.884;12.598;2023-08-31T06:32:19;16.20;99.90
64654;DHT22;51065;48.884;12.598;2023-08-31T06:34:45;15.80;99.90
64654;DHT22;51065;48.884;12.598;2023-08-31T06:37:11;15.40;99.90
64654;DHT22;51065;48.884;12.598;2023-08-31T06:39:36;15.20;99.90
64654;DHT22;51065;48.884;12.598;2023-08-31T06:42:03;15.10;99.90
64654;DHT22;51065;48.884;12.598;2023-08-31T06:44:29;15.10;99.90
64654;DHT22;51065;48.884;12.598;2023-08-31T06:46:55;15.30;99.90
64654;DHT22;51065;48.884;12.598;2023-08-31T06:49:22;15.80;99.90
64654;DHT22;51065;48.884;12.598;2023-08-31T06:51:48;16.60;99.90
64654;DHT22;51065;48.884;12.598;2023-08-31T06:54:13;17.20;99.90
64654;DHT22;51065;48.884;12.598;2023-08-31T06:56:39;17.60;99.90
64654;DHT22;51065;48.884;12.598;2023-08-31T06:59:04;17.60;99.90
64654;DHT22;51065;48.884;12.598;2023-08-31T07:01:31;17.60;99.90
64654;DHT22;51065;48.884;12.598;2023-08-31T07:03:58;18.00;99.90
64654;DHT22;51065;48.884;12.598;2023-08-31T07:06:24;17.80;99.90
64654;DHT22;51065;48.884;12.598;2023-08-31T07:08:50;17.10;99.90
64654;DHT22;51065;48.884;12.598;2023-08-31T07:11:16;16.50;99.90
64654;DHT22;51065;48.884;12.598;2023-08-31T07:13:42;16.10;99.90
64654;DHT22;51065;48.884;12.598;2023-08-31T07:16:08;15.90;99.90
64654;DHT22;51065;48.884;12.598;2023-08-31T07:18:33;15.70;99.90
64654;DHT22;51065;48.884;12.598;2023-08-31T07:20:59;15.80;99.90
64654;DHT22;51065;48.884;12.598;2023-08-31T07:23:24;16.30;99.90
64654;DHT22;51065;48.884;12.598;2023-08-31T07:25:50;16.40;99.90
64654;DHT22;51065;48.884;12.598;2023-08-31T07:28:16;16.40;99.90
64654;DHT22;51065;48.884;12.598;2023-08-31T07:30:42;17.10;99.90
64654;DHT22;51065;48.884;12.598;2023-08-31T07:33:07;17.50;99.90
64654;DHT22;51065;48.884;12.598;2023-08-31T07:35:33;17.30;99.90
64654;DHT22;51065;48.884;12.598;2023-08-31T07:37:58;16.90;99.90
64654;DHT22;51065;48.884;12.598;2023-08-31T07:40:24;16.70;99.90
64654;DHT22;51065;48.884;12.598;2023-08-31T07:42:50;16.50;99.90
64654;DHT22;51065;48.884;12.598;2023-08-31T07:45:17;17.20;99.90
64654;DHT22;51065;48.884;12.598;2023-08-31T07:47:43;18.00;99.90
64654;DHT22;51065;48.884;12.598;2023-08-31T07:50:09;18.00;99.90
64654;DHT22;51065;48.884;12.598;2023-08-31T07:52:34;17.80;99.90
64654;DHT22;51065;48.884;12.598;2023-08-31T07:55:00;18.00;99.90
64654;DHT22;51065;48.884;12.598;2023-08-31T07:57:26;18.00;99.90
64654;DHT22;51065;48.884;12.598;2023-08-31T07:59:52;18.20;99.90
64654;DHT22;51065;48.884;12.598;2023-08-31T08:02:17;18.50;99.90
64654;DHT22;51065;48.884;12.598;2023-08-31T08:04:45;18.50;99.90
64654;DHT22;51065;48.884;12.598;2023-08-31T08:07:11;19.10;99.90
64654;DHT22;51065;48.884;12.598;2023-08-31T08:09:36;19.70;99.90
64654;DHT22;51065;48.884;12.598;2023-08-31T08:12:02;19.40;99.90
64654;DHT22;51065;48.884;12.598;2023-08-31T08:14:28;19.40;99.90
64654;DHT22;51065;48.884;12.598;2023-08-31T08:16:54;19.60;99.90
64654;DHT22;51065;48.884;12.598;2023-08-31T08:19:23;19.30;99.90
64654;DHT22;51065;48.884;12.598;2023-08-31T08:21:52;19.60;99.90
64654;DHT22;51065;48.884;12.598;2023-08-31T08:24:17;19.80;99.90
64654;DHT22;51065;48.884;12.598;2023-08-31T08:26:43;19.90;99.90
64654;DHT22;51065;48.884;12.598;2023-08-31T08:29:09;20.00;99.90
64654;DHT22;51065;48.884;12.598;2023-08-31T08:31:35;19.50;99.90
64654;DHT22;51065;48.884;12.598;2023-08-31T08:34:01;19.00;99.90
64654;DHT22;51065;48.884;12.598;2023-08-31T08:36:26;18.90;99.90
64654;DHT22;51065;48.884;12.598;2023-08-31T08:38:52;18.40;99.90
64654;DHT22;51065;48.884;12.598;2023-08-31T08:41:23;18.50;99.90
64654;DHT22;51065;48.884;12.598;2023-08-31T08:43:50;18.40;99.90
64654;DHT22;51065;48.884;12.598;2023-08-31T08:46:16;18.40;99.90
64654;DHT22;51065;48.884;12.598;2023-08-31T08:48:42;18.50;99.90
64654;DHT22;51065;48.884;12.598;2023-08-31T08:51:13;18.50;99.90
64654;DHT22;51065;48.884;12.598;2023-08-31T08:53:41;18.60;99.90
64654;DHT22;51065;48.884;12.598;2023-08-31T08:56:08;19.90;99.90
64654;DHT22;51065;48.884;12.598;2023-08-31T08:58:33;20.90;99.90
64654;DHT22;51065;48.884;12.598;2023-08-31T09:01:00;21.40;99.90
64654;DHT22;51065;48.884;12.598;2023-08-31T09:03:26;22.10;99.90
64654;DHT22;51065;48.884;12.598;2023-08-31T09:05:51;22.20;99.90
64654;DHT22;51065;48.884;12.598;2023-08-31T09:08:17;21.60;99.90
64654;DHT22;51065;48.884;12.598;2023-08-31T09:10:50;20.80;99.90
64654;DHT22;51065;48.884;12.598;2023-08-31T09:13:15;19.90;99.90
64654;DHT22;51065;48.884;12.598;2023-08-31T09:15:47;19.50;99.90
64654;DHT22;51065;48.884;12.598;2023-08-31T09:18:16;19.50;99.90
64654;DHT22;51065;48.884;12.598;2023-08-31T09:20:48;19.20;99.90
64654;DHT22;51065;48.884;12.598;2023-08-31T09:23:14;19.20;99.90
64654;DHT22;51065;48.884;12.598;2023-08-31T09:28:11;18.50;99.90
64654;DHT22;51065;48.884;12.598;2023-08-31T09:30:37;18.50;99.90
64654;DHT22;51065;48.884;12.598;2023-08-31T09:33:04;18.70;99.90
64654;DHT22;51065;48.884;12.598;2023-08-31T09:35:31;18.50;99.90
64654;DHT22;51065;48.884;12.598;2023-08-31T09:37:57;18.50;99.90
64654;DHT22;51065;48.884;12.598;2023-08-31T09:40:23;18.70;99.90
64654;DHT22;51065;48.884;12.598;2023-08-31T09:42:52;19.30;99.90
64654;DHT22;51065;48.884;12.598;2023-08-31T09:45:30;19.50;99.90
64654;DHT22;51065;48.884;12.598;2023-08-31T09:47:59;19.50;99.90
64654;DHT22;51065;48.884;12.598;2023-08-31T09:50:26;19.90;99.90
64654;DHT22;51065;48.884;12.598;2023-08-31T09:52:54;19.30;99.90
64654;DHT22;51065;48.884;12.598;2023-08-31T09:55:21;19.10;99.90
64654;DHT22;51065;48.884;12.598;2023-08-31T09:57:48;19.20;99.90
64654;DHT22;51065;48.884;12.598;2023-08-31T10:00:14;18.90;99.90
64654;DHT22;51065;48.884;12.598;2023-08-31T10:02:43;19.10;99.90
64654;DHT22;51065;48.884;12.598;2023-08-31T10:05:10;19.00;99.90
64654;DHT22;51065;48.884;12.598;2023-08-31T10:07:37;18.80;99.90
64654;DHT22;51065;48.884;12.598;2023-08-31T10:10:03;18.70;99.90
64654;DHT22;51065;48.884;12.598;2023-08-31T10:12:28;18.50;99.90
64654;DHT22;51065;48.884;12.598;2023-08-31T10:14:56;18.80;99.90
64654;DHT22;51065;48.884;12.598;2023-08-31T10:17:24;19.30;99.90
64654;DHT22;51065;48.884;12.598;2023-08-31T10:19:50;20.00;99.90
64654;DHT22;51065;48.884;12.598;2023-08-31T10:22:17;20.40;92.10
64654;DHT22;51065;48.884;12.598;2023-08-31T10:25:04;20.90;72.00
64654;DHT22;51065;48.884;12.598;2023-08-31T10:27:42;20.90;90.70
64654;DHT22;51065;48.884;12.598;2023-08-31T10:38:14;22.30;66.10
64654;DHT22;51065;48.884;12.598;2023-08-31T10:40:40;23.10;68.70
64654;DHT22;51065;48.884;12.598;2023-08-31T10:43:15;23.40;54.40
64654;DHT22;51065;48.884;12.598;2023-08-31T10:45:45;23.20;61.60
64654;DHT22;51065;48.884;12.598;2023-08-31T10:48:11;23.30;59.50
64654;DHT22;51065;48.884;12.598;2023-08-31T10:50:44;22.70;55.90
64654;DHT22;51065;48.884;12.598;2023-08-31T10:53:10;21.90;70.10
64654;DHT22;51065;48.884;12.598;2023-08-31T10:55:53;21.00;67.00
64654;DHT22;51065;48.884;12.598;2023-08-31T10:58:18;21.10;69.80
64654;DHT22;51065;48.884;12.598;2023-08-31T11:00:52;21.40;73.60
64654;DHT22;51065;48.884;12.598;2023-08-31T11:03:18;22.10;66.00
64654;DHT22;51065;48.884;12.598;2023-08-31T11:05:53;22.20;80.10
64654;DHT22;51065;48.884;12.598;2023-08-31T11:08:28;22.50;70.90
64654;DHT22;51065;48.884;12.598;2023-08-31T11:10:54;22.50;74.70
64654;DHT22;51065;48.884;12.598;2023-08-31T11:13:20;22.20;64.10
64654;DHT22;51065;48.884;12.598;2023-08-31T11:15:46;21.60;80.40
64654;DHT22;51065;48.884;12.598;2023-08-31T11:18:12;21.30;87.10
64654;DHT22;51065;48.884;12.598;2023-08-31T11:20:42;20.90;85.80
64654;DHT22;51065;48.884;12.598;2023-08-31T11:23:08;21.00;93.70
64654;DHT22;51065;48.884;12.598;2023-08-31T11:25:34;21.70;92.50
64654;DHT22;51065;48.884;12.598;2023-08-31T11:28:02;21.70;76.20
64654;DHT22;51065;48.884;12.598;2023-08-31T11:30:31;21.50;70.90
64654;DHT22;51065;48.884;12.598;2023-08-31T11:32:57;21.50;83.70
64654;DHT22;51065;48.884;12.598;2023-08-31T11:35:23;21.70;87.40
64654;DHT22;51065;48.884;12.598;2023-08-31T11:37:52;22.30;67.90
64654;DHT22;51065;48.884;12.598;2023-08-31T11:40:18;23.10;81.00
64654;DHT22;51065;48.884;12.598;2023-08-31T11:42:44;22.70;72.60
64654;DHT22;51065;48.884;12.598;2023-08-31T11:45:11;22.40;83.50
64654;DHT22;51065;48.884;12.598;2023-08-31T11:47:38;22.30;70.90
64654;DHT22;51065;48.884;12.598;2023-08-31T11:50:06;22.50;64.80
64654;DHT22;51065;48.884;12.598;2023-08-31T11:52:32;22.40;66.10
64654;DHT22;51065;48.884;12.598;2023-08-31T11:54:58;22.30;69.50
64654;DHT22;51065;48.884;12.598;2023-08-31T11:57:27;22.00;84.10
64654;DHT22;51065;48.884;12.598;2023-08-31T11:59:54;22.80;61.50
64654;DHT22;51065;48.884;12.598;2023-08-31T12:02:21;23.10;67.90
64654;DHT22;51065;48.884;12.598;2023-08-31T12:04:47;21.90;76.00
64654;DHT22;51065;48.884;12.598;2023-08-31T12:07:17;21.40;75.00
64654;DHT22;51065;48.884;12.598;2023-08-31T12:09:44;20.90;92.70
64654;DHT22;51065;48.884;12.598;2023-08-31T12:12:10;20.50;92.40
64654;DHT22;51065;48.884;12.598;2023-08-31T12:14:37;20.60;99.30
64654;DHT22;51065;48.884;12.598;2023-08-31T12:17:07;20.80;91.00
64654;DHT22;51065;48.884;12.598;2023-08-31T12:19:36;21.40;94.50
64654;DHT22;51065;48.884;12.598;2023-08-31T12:22:02;21.10;72.60
64654;DHT22;51065;48.884;12.598;2023-08-31T12:24:28;21.20;92.80
64654;DHT22;51065;48.884;12.598;2023-08-31T12:26:53;22.50;88.00
64654;DHT22;51065;48.884;12.598;2023-08-31T12:29:19;22.70;73.10
64654;DHT22;51065;48.884;12.598;2023-08-31T12:31:45;23.10;62.70
64654;DHT22;51065;48.884;12.598;2023-08-31T12:34:11;23.20;67.00
64654;DHT22;51065;48.884;12.598;2023-08-31T12:36:37;23.30;70.40
64654;DHT22;51065;48.884;12.598;2023-08-31T12:39:05;22.60;74.80
64654;DHT22;51065;48.884;12.598;2023-08-31T12:41:39;22.20;82.30
64654;DHT22;51065;48.884;12.598;2023-08-31T12:44:06;21.20;84.70
64654;DHT22;51065;48.884;12.598;2023-08-31T12:46:31;20.70;98.70
64654;DHT22;51065;48.884;12.598;2023-08-31T12:48:58;20.40;99.90
64654;DHT22;51065;48.884;12.598;2023-08-31T12:51:24;20.10;95.20
64654;DHT22;51065;48.884;12.598;2023-08-31T12:53:49;20.50;99.90
64654;DHT22;51065;48.884;12.598;2023-08-31T12:56:15;20.90;99.90
64654;DHT22;51065;48.884;12.598;2023-08-31T12:58:53;20.40;98.20
64654;DHT22;51065;48.884;12.598;2023-08-31T13:01:19;20.40;99.90
64654;DHT22;51065;48.884;12.598;2023-08-31T13:03:46;20.50;99.90
64654;DHT22;51065;48.884;12.598;2023-08-31T13:06:13;21.30;89.90
64654;DHT22;51065;48.884;12.598;2023-08-31T13:08:38;21.20;93.00
64654;DHT22;51065;48.884;12.598;2023-08-31T13:11:04;21.50;83.70
64654;DHT22;51065;48.884;12.598;2023-08-31T13:13:30;21.70;88.30
64654;DHT22;51065;48.884;12.598;2023-08-31T13:15:57;22.10;74.80
64654;DHT22;51065;48.884;12.598;2023-08-31T13:18:22;22.50;81.20
64654;DHT22;51065;48.884;12.598;2023-08-31T13:20:52;22.60;87.10
64654;DHT22;51065;48.884;12.598;2023-08-31T13:23:18;22.00;83.80
64654;DHT22;51065;48.884;12.598;2023-08-31T13:25:45;22.20;84.30
64654;DHT22;51065;48.884;12.598;2023-08-31T13:28:10;22.40;82.90
64654;DHT22;51065;48.884;12.598;2023-08-31T13:30:39;22.60;76.00
64654;DHT22;51065;48.884;12.598;2023-08-31T13:33:06;22.30;78.20
64654;DHT22;51065;48.884;12.598;2023-08-31T13:35:33;22.40;80.00
64654;DHT22;51065;48.884;12.598;2023-08-31T13:37:59;22.20;79.40
64654;DHT22;51065;48.884;12.598;2023-08-31T13:40:24;22.80;74.70
64654;DHT22;51065;48.884;12.598;2023-08-31T13:43:00;22.20;77.60
64654;DHT22;51065;48.884;12.598;2023-08-31T13:45:31;22.00;82.40
64654;DHT22;51065;48.884;12.598;2023-08-31T13:47:58;21.80;72.90
64654;DHT22;51065;48.884;12.598;2023-08-31T13:50:28;21.70;83.80
64654;DHT22;51065;48.884;12.598;2023-08-31T13:52:53;22.00;82.20
64654;DHT22;51065;48.884;12.598;2023-08-31T13:55:19;21.90;70.80
64654;DHT22;51065;48.884;12.598;2023-08-31T13:57:45;21.20;79.90
64654;DHT22;51065;48.884;12.598;2023-08-31T14:00:11;20.80;92.70
64654;DHT22;51065;48.884;12.598;2023-08-31T14:02:37;21.00;91.10
64654;DHT22;51065;48.884;12.598;2023-08-31T14:05:06;21.00;97.10
64654;DHT22;51065;48.884;12.598;2023-08-31T14:07:33;21.20;96.90
64654;DHT22;51065;48.884;12.598;2023-08-31T14:09:58;21.50;92.70
64654;DHT22;51065;48.884;12.598;2023-08-31T14:12:24;21.20;99.90
64654;DHT22;51065;48.884;12.598;2023-08-31T14:14:51;21.40;93.90
64654;DHT22;51065;48.884;12.598;2023-08-31T14:17:18;21.30;92.30
64654;DHT22;51065;48.884;12.598;2023-08-31T14:19:44;21.10;99.90
64654;DHT22;51065;48.884;12.598;2023-08-31T14:22:09;21.40;95.10
64654;DHT22;51065;48.884;12.598;2023-08-31T14:24:36;21.40;89.20
64654;DHT22;51065;48.884;12.598;2023-08-31T14:27:03;21.60;93.40
64654;DHT22;51065;48.884;12.598;2023-08-31T14:29:28;21.80;88.60
64654;DHT22;51065;48.884;12.598;2023-08-31T14:31:54;22.10;83.70
64654;DHT22;51065;48.884;12.598;2023-08-31T14:34:21;21.70;80.40
64654;DHT22;51065;48.884;12.598;2023-08-31T14:36:47;20.90;97.10
64654;DHT22;51065;48.884;12.598;2023-08-31T14:39:12;20.30;95.80
64654;DHT22;51065;48.884;12.598;2023-08-31T14:41:38;20.00;99.90
64654;DHT22;51065;48.884;12.598;2023-08-31T14:44:03;19.80;99.90
64654;DHT22;51065;48.884;12.598;2023-08-31T14:46:29;19.50;98.70
64654;DHT22;51065;48.884;12.598;2023-08-31T14:48:55;19.40;99.90
64654;DHT22;51065;48.884;12.598;2023-08-31T14:51:20;19.20;99.90
64654;DHT22;51065;48.884;12.598;2023-08-31T14:53:46;19.30;99.90
64654;DHT22;51065;48.884;12.598;2023-08-31T14:56:12;19.30;99.90
64654;DHT22;51065;48.884;12.598;2023-08-31T14:58:37;19.40;99.90
64654;DHT22;51065;48.884;12.598;2023-08-31T15:01:03;19.80;99.90
64654;DHT22;51065;48.884;12.598;2023-08-31T15:03:28;20.10;99.90
64654;DHT22;51065;48.884;12.598;2023-08-31T15:05:54;20.40;99.90
64654;DHT22;51065;48.884;12.598;2023-08-31T15:08:22;20.60;99.90
64654;DHT22;51065;48.884;12.598;2023-08-31T15:11:00;21.00;81.50
64654;DHT22;51065;48.884;12.598;2023-08-31T15:13:27;20.80;72.70
64654;DHT22;51065;48.884;12.598;2023-08-31T15:15:53;20.90;73.50
64654;DHT22;51065;48.884;12.598;2023-08-31T15:18:18;20.70;78.30
64654;DHT22;51065;48.884;12.598;2023-08-31T15:20:44;20.40;74.80
64654;DHT22;51065;48.884;12.598;2023-08-31T15:23:10;20.20;89.60
64654;DHT22;51065;48.884;12.598;2023-08-31T15:25:35;20.10;89.40